Davis Monthan Air Force Base
KDMA : now visible

Aeroporto :











RITROVATECI SU...

 
LOGIN :

Iscrizione | Disclaimer

   EN    FR    IT 

 









Sommario :    VFR   VFR Marginale   IFR   IFR Intensivo   IFR Molto Intensivo
Visibilità : 
Base nubi : 
>= 8 km
>= 3000ft
5 / 8 km
1000 / 3000 ft
1500m / 5 km
500 / 1000 ft
800 / 1500m
200 / 500 ft
< 800m
< 200 ft
Simboli :   Temporali  Nebbia  Neve Forte  Precipitazioni Forti  Vento > 20 kt






- Altitudine del aeroporto : 2704 ft


KDMA - Davis Monthan Air Force Base

ULTIMO METAR :
  • 061758Z AUTO 00000KT 10SM CLR 18/07 A3022 RMK AO2 SLP214 T01780069 10179 20076 50007 $

METARs OBSOLETI :
  • 061658Z AUTO 14005KT 10SM CLR 15/07 A3022 RMK AO2 SLP216 T01470070 $
  • 061558Z AUTO 09004KT 10SM CLR 11/06 A3021 RMK AO2 SLP215 T01090060 $

TAF TAF KDMA
Valido dal 06 a 14 ore il 07 a 20 ore UTC


061355Z 0614/0720 10006KT 9999 BKN250 QNH3018INS
BECMG 0620/0621 VRB06KT 9999 SCT220 QNH3015INS
BECMG 0704/0705 10006KT 9999 SCT210 QNH3018INS TX22/0622Z TN08/0614Z



MetMap, La meteo Aeronautica in un colpo d'occhio ! - Copyright ORBIFLY Dicembre 2007 - Disclaimer

ORBIFLY MET'MAP TEAM :

Programmazione e sviluppo : Alexandra Zaïnal
Concezione : Baudouin d'Aumeries
Aiuto per la programmazione : Marc-Olivier Méhu
Supporto tecnico e logistico : Manuel Goepfert
Aiuto per la traduzione : Arnaldo La Scala

Contatto : metmap@orbifly.com




FONTI E CREDITI :

   NOAA       Earth
Advisory